In Rescue
 
Open Full Screen Window  High Contrast Mode
Wind Gusting 00 knots
03
November 29, 2022 10:02 AM EST
Weather Information
Wind Direction
  100 °
Wind Speed
  03 kt (3 mph)
Wind Gust
  00 kt (0 mph)
Altimeter
29.91 in
Visibility
10 SM
Temperature
02° C
36° F
Dewpoint
00° C
32° F
Humidity
87%
Sky Condition
Scattered @ 2,800 ft
VFR

METAR KMGN 291502Z AUTO 10003KT 10SM SCT028 02/00 A2991 RMK AO2 T00270000

FAA Disclaimer: The data displayed is for advisory purposes only and is not to be used for flight planning or operations.